sensor_id;sensor_type;location;lat;lon;timestamp;temperature;humidity
21648;DHT22;10985;54.182;7.890;2022-09-01T00:01:52;17.90;99.90
21648;DHT22;10985;54.182;7.890;2022-09-01T00:04:21;17.90;99.90
21648;DHT22;10985;54.182;7.890;2022-09-01T00:06:48;17.90;99.90
21648;DHT22;10985;54.182;7.890;2022-09-01T00:09:17;17.90;99.90
21648;DHT22;10985;54.182;7.890;2022-09-01T00:11:46;17.80;99.90
21648;DHT22;10985;54.182;7.890;2022-09-01T00:14:13;17.80;99.90
21648;DHT22;10985;54.182;7.890;2022-09-01T00:16:38;17.80;99.90
21648;DHT22;10985;54.182;7.890;2022-09-01T00:19:04;17.80;99.90
21648;DHT22;10985;54.182;7.890;2022-09-01T00:21:34;17.80;99.90
21648;DHT22;10985;54.182;7.890;2022-09-01T00:24:00;17.70;99.90
21648;DHT22;10985;54.182;7.890;2022-09-01T00:26:27;17.80;99.90
21648;DHT22;10985;54.182;7.890;2022-09-01T00:28:53;17.70;99.90
21648;DHT22;10985;54.182;7.890;2022-09-01T00:31:19;17.70;99.90
21648;DHT22;10985;54.182;7.890;2022-09-01T00:33:46;17.70;99.90
21648;DHT22;10985;54.182;7.890;2022-09-01T00:36:12;17.70;99.90
21648;DHT22;10985;54.182;7.890;2022-09-01T00:38:38;17.70;99.90
21648;DHT22;10985;54.182;7.890;2022-09-01T00:41:05;17.70;99.90
21648;DHT22;10985;54.182;7.890;2022-09-01T00:46:08;17.60;99.90
21648;DHT22;10985;54.182;7.890;2022-09-01T00:48:34;17.60;99.90
21648;DHT22;10985;54.182;7.890;2022-09-01T00:51:00;17.60;99.90
21648;DHT22;10985;54.182;7.890;2022-09-01T00:53:27;17.60;99.90
21648;DHT22;10985;54.182;7.890;2022-09-01T00:55:52;17.50;99.90
21648;DHT22;10985;54.182;7.890;2022-09-01T00:58:18;17.50;99.90
21648;DHT22;10985;54.182;7.890;2022-09-01T01:00:45;17.50;99.90
21648;DHT22;10985;54.182;7.890;2022-09-01T01:03:13;17.50;99.90
21648;DHT22;10985;54.182;7.890;2022-09-01T01:05:42;17.50;99.90
21648;DHT22;10985;54.182;7.890;2022-09-01T01:08:11;17.50;99.90
21648;DHT22;10985;54.182;7.890;2022-09-01T01:10:39;17.50;99.90
21648;DHT22;10985;54.182;7.890;2022-09-01T01:13:12;17.50;99.90
21648;DHT22;10985;54.182;7.890;2022-09-01T01:15:38;17.40;99.90
21648;DHT22;10985;54.182;7.890;2022-09-01T01:18:09;17.40;99.90
21648;DHT22;10985;54.182;7.890;2022-09-01T01:20:34;17.40;99.90
21648;DHT22;10985;54.182;7.890;2022-09-01T01:23:47;17.50;99.90
21648;DHT22;10985;54.182;7.890;2022-09-01T01:26:15;17.40;99.90
21648;DHT22;10985;54.182;7.890;2022-09-01T01:28:41;17.40;99.90
21648;DHT22;10985;54.182;7.890;2022-09-01T01:31:14;17.40;99.90
21648;DHT22;10985;54.182;7.890;2022-09-01T01:33:51;17.40;99.90
21648;DHT22;10985;54.182;7.890;2022-09-01T01:36:21;17.30;99.90
21648;DHT22;10985;54.182;7.890;2022-09-01T01:38:51;17.40;99.90
21648;DHT22;10985;54.182;7.890;2022-09-01T01:41:18;17.30;99.90
21648;DHT22;10985;54.182;7.890;2022-09-01T01:43:44;17.30;99.90
21648;DHT22;10985;54.182;7.890;2022-09-01T01:46:11;17.30;99.90
21648;DHT22;10985;54.182;7.890;2022-09-01T01:48:40;17.30;99.90
21648;DHT22;10985;54.182;7.890;2022-09-01T01:51:08;17.30;99.90
21648;DHT22;10985;54.182;7.890;2022-09-01T01:53:34;17.30;99.90
21648;DHT22;10985;54.182;7.890;2022-09-01T01:56:00;17.30;99.90
21648;DHT22;10985;54.182;7.890;2022-09-01T01:58:27;17.30;99.90
21648;DHT22;10985;54.182;7.890;2022-09-01T02:00:54;17.30;99.90
21648;DHT22;10985;54.182;7.890;2022-09-01T02:03:23;17.30;99.90
21648;DHT22;10985;54.182;7.890;2022-09-01T02:05:52;17.30;99.90
21648;DHT22;10985;54.182;7.890;2022-09-01T02:08:19;17.30;99.90
21648;DHT22;10985;54.182;7.890;2022-09-01T02:10:49;17.30;99.90
21648;DHT22;10985;54.182;7.890;2022-09-01T02:13:18;17.30;99.90
21648;DHT22;10985;54.182;7.890;2022-09-01T02:15:50;17.20;99.90
21648;DHT22;10985;54.182;7.890;2022-09-01T02:18:36;17.20;99.90
21648;DHT22;10985;54.182;7.890;2022-09-01T02:21:05;17.20;99.90
21648;DHT22;10985;54.182;7.890;2022-09-01T02:23:39;17.20;99.90
21648;DHT22;10985;54.182;7.890;2022-09-01T02:26:06;17.20;99.90
21648;DHT22;10985;54.182;7.890;2022-09-01T02:28:36;17.20;99.90
21648;DHT22;10985;54.182;7.890;2022-09-01T02:31:05;17.20;99.90
21648;DHT22;10985;54.182;7.890;2022-09-01T02:33:33;17.20;99.90
21648;DHT22;10985;54.182;7.890;2022-09-01T02:36:03;17.20;99.90
21648;DHT22;10985;54.182;7.890;2022-09-01T02:38:30;17.20;99.90
21648;DHT22;10985;54.182;7.890;2022-09-01T02:41:00;17.20;99.90
21648;DHT22;10985;54.182;7.890;2022-09-01T02:43:27;17.20;99.90
21648;DHT22;10985;54.182;7.890;2022-09-01T02:45:55;17.20;99.90
21648;DHT22;10985;54.182;7.890;2022-09-01T02:48:25;17.10;99.90
21648;DHT22;10985;54.182;7.890;2022-09-01T02:50:51;17.20;99.90
21648;DHT22;10985;54.182;7.890;2022-09-01T02:53:17;17.10;99.90
21648;DHT22;10985;54.182;7.890;2022-09-01T02:55:44;17.10;99.90
21648;DHT22;10985;54.182;7.890;2022-09-01T02:58:10;17.10;99.90
21648;DHT22;10985;54.182;7.890;2022-09-01T03:00:41;17.10;99.90
21648;DHT22;10985;54.182;7.890;2022-09-01T03:03:07;17.10;99.90
21648;DHT22;10985;54.182;7.890;2022-09-01T03:05:33;17.10;99.90
21648;DHT22;10985;54.182;7.890;2022-09-01T03:08:05;17.10;99.90
21648;DHT22;10985;54.182;7.890;2022-09-01T03:10:36;17.10;99.90
21648;DHT22;10985;54.182;7.890;2022-09-01T03:13:14;17.00;99.90
21648;DHT22;10985;54.182;7.890;2022-09-01T03:15:40;17.00;99.90
21648;DHT22;10985;54.182;7.890;2022-09-01T03:18:07;17.00;99.90
21648;DHT22;10985;54.182;7.890;2022-09-01T03:20:34;17.00;99.90
21648;DHT22;10985;54.182;7.890;2022-09-01T03:23:02;17.10;99.90
21648;DHT22;10985;54.182;7.890;2022-09-01T03:25:28;17.00;99.90
21648;DHT22;10985;54.182;7.890;2022-09-01T03:27:55;17.00;99.90
21648;DHT22;10985;54.182;7.890;2022-09-01T03:30:21;17.00;99.90
21648;DHT22;10985;54.182;7.890;2022-09-01T03:32:47;17.00;99.90
21648;DHT22;10985;54.182;7.890;2022-09-01T03:35:12;17.00;99.90
21648;DHT22;10985;54.182;7.890;2022-09-01T03:37:38;17.00;99.90
21648;DHT22;10985;54.182;7.890;2022-09-01T03:40:05;17.00;99.90
21648;DHT22;10985;54.182;7.890;2022-09-01T03:42:34;17.00;99.90
21648;DHT22;10985;54.182;7.890;2022-09-01T03:45:01;17.00;99.90
21648;DHT22;10985;54.182;7.890;2022-09-01T03:47:34;16.90;99.90
21648;DHT22;10985;54.182;7.890;2022-09-01T03:50:11;16.90;99.90
21648;DHT22;10985;54.182;7.890;2022-09-01T03:52:49;16.90;99.90
21648;DHT22;10985;54.182;7.890;2022-09-01T03:55:20;16.90;99.90
21648;DHT22;10985;54.182;7.890;2022-09-01T03:57:49;16.90;99.90
21648;DHT22;10985;54.182;7.890;2022-09-01T04:00:16;16.90;99.90
21648;DHT22;10985;54.182;7.890;2022-09-01T04:02:51;16.90;99.90
21648;DHT22;10985;54.182;7.890;2022-09-01T04:05:20;16.90;99.90
21648;DHT22;10985;54.182;7.890;2022-09-01T04:07:47;16.90;99.90
21648;DHT22;10985;54.182;7.890;2022-09-01T04:10:15;16.90;99.90
21648;DHT22;10985;54.182;7.890;2022-09-01T04:12:42;16.80;99.90
21648;DHT22;10985;54.182;7.890;2022-09-01T04:15:08;16.80;99.90
21648;DHT22;10985;54.182;7.890;2022-09-01T04:17:34;16.80;99.90
21648;DHT22;10985;54.182;7.890;2022-09-01T04:20:18;16.90;99.90
21648;DHT22;10985;54.182;7.890;2022-09-01T04:22:45;16.80;99.90
21648;DHT22;10985;54.182;7.890;2022-09-01T04:25:13;16.80;99.90
21648;DHT22;10985;54.182;7.890;2022-09-01T04:27:39;16.80;99.90
21648;DHT22;10985;54.182;7.890;2022-09-01T04:30:10;16.80;99.90
21648;DHT22;10985;54.182;7.890;2022-09-01T04:32:38;16.80;99.90
21648;DHT22;10985;54.182;7.890;2022-09-01T04:35:06;16.70;99.90
21648;DHT22;10985;54.182;7.890;2022-09-01T04:37:32;16.80;99.90
21648;DHT22;10985;54.182;7.890;2022-09-01T04:40:02;16.80;99.90
21648;DHT22;10985;54.182;7.890;2022-09-01T04:42:30;16.70;99.90
21648;DHT22;10985;54.182;7.890;2022-09-01T04:44:57;16.70;99.90
21648;DHT22;10985;54.182;7.890;2022-09-01T04:47:25;16.70;99.90
21648;DHT22;10985;54.182;7.890;2022-09-01T04:49:57;16.70;99.90
21648;DHT22;10985;54.182;7.890;2022-09-01T04:52:26;16.70;99.90
21648;DHT22;10985;54.182;7.890;2022-09-01T04:54:52;16.70;99.90
21648;DHT22;10985;54.182;7.890;2022-09-01T04:57:19;16.70;99.90
21648;DHT22;10985;54.182;7.890;2022-09-01T04:59:45;16.70;99.90
21648;DHT22;10985;54.182;7.890;2022-09-01T05:02:11;16.70;99.90
21648;DHT22;10985;54.182;7.890;2022-09-01T05:04:36;16.70;99.90
21648;DHT22;10985;54.182;7.890;2022-09-01T05:07:03;16.80;99.90
21648;DHT22;10985;54.182;7.890;2022-09-01T05:09:31;16.70;99.90
21648;DHT22;10985;54.182;7.890;2022-09-01T05:11:59;16.80;99.90
21648;DHT22;10985;54.182;7.890;2022-09-01T05:14:38;16.80;99.90
21648;DHT22;10985;54.182;7.890;2022-09-01T05:17:11;16.80;99.90
21648;DHT22;10985;54.182;7.890;2022-09-01T05:19:39;16.80;99.90
21648;DHT22;10985;54.182;7.890;2022-09-01T05:22:06;16.80;99.90
21648;DHT22;10985;54.182;7.890;2022-09-01T05:24:33;16.70;99.90
21648;DHT22;10985;54.182;7.890;2022-09-01T05:27:00;16.80;99.90
21648;DHT22;10985;54.182;7.890;2022-09-01T05:29:26;16.80;99.90
21648;DHT22;10985;54.182;7.890;2022-09-01T05:31:52;16.80;99.90
21648;DHT22;10985;54.182;7.890;2022-09-01T05:34:20;16.80;99.90
21648;DHT22;10985;54.182;7.890;2022-09-01T05:36:50;16.80;99.90
21648;DHT22;10985;54.182;7.890;2022-09-01T05:39:17;16.80;99.90
21648;DHT22;10985;54.182;7.890;2022-09-01T05:41:43;16.80;99.90
21648;DHT22;10985;54.182;7.890;2022-09-01T05:44:11;16.80;99.90
21648;DHT22;10985;54.182;7.890;2022-09-01T05:46:38;16.80;99.90
21648;DHT22;10985;54.182;7.890;2022-09-01T05:49:05;16.80;99.90
21648;DHT22;10985;54.182;7.890;2022-09-01T05:51:33;16.90;99.90
21648;DHT22;10985;54.182;7.890;2022-09-01T05:54:00;16.90;99.90
21648;DHT22;10985;54.182;7.890;2022-09-01T05:56:27;16.90;99.90
21648;DHT22;10985;54.182;7.890;2022-09-01T05:58:54;16.90;99.90
21648;DHT22;10985;54.182;7.890;2022-09-01T06:01:25;16.90;99.90
21648;DHT22;10985;54.182;7.890;2022-09-01T06:03:55;17.00;99.90
21648;DHT22;10985;54.182;7.890;2022-09-01T06:06:27;17.00;99.90
21648;DHT22;10985;54.182;7.890;2022-09-01T06:08:53;17.00;99.90
21648;DHT22;10985;54.182;7.890;2022-09-01T06:11:22;17.00;99.90
21648;DHT22;10985;54.182;7.890;2022-09-01T06:13:49;17.10;99.90
21648;DHT22;10985;54.182;7.890;2022-09-01T06:16:16;17.10;99.90
21648;DHT22;10985;54.182;7.890;2022-09-01T06:18:43;17.10;99.90
21648;DHT22;10985;54.182;7.890;2022-09-01T06:21:11;17.10;99.90
21648;DHT22;10985;54.182;7.890;2022-09-01T06:23:40;17.10;99.90
21648;DHT22;10985;54.182;7.890;2022-09-01T06:26:14;17.10;99.90
21648;DHT22;10985;54.182;7.890;2022-09-01T06:28:40;17.10;99.90
21648;DHT22;10985;54.182;7.890;2022-09-01T06:31:06;17.10;99.90
21648;DHT22;10985;54.182;7.890;2022-09-01T06:33:32;17.10;99.90
21648;DHT22;10985;54.182;7.890;2022-09-01T06:36:03;17.10;99.90
21648;DHT22;10985;54.182;7.890;2022-09-01T06:38:28;17.10;99.90
21648;DHT22;10985;54.182;7.890;2022-09-01T06:41:02;17.10;99.90
21648;DHT22;10985;54.182;7.890;2022-09-01T06:43:29;17.10;99.90
21648;DHT22;10985;54.182;7.890;2022-09-01T06:45:55;17.20;99.90
21648;DHT22;10985;54.182;7.890;2022-09-01T06:48:21;17.20;99.90
21648;DHT22;10985;54.182;7.890;2022-09-01T06:50:47;17.20;99.90
21648;DHT22;10985;54.182;7.890;2022-09-01T06:53:14;17.20;99.90
21648;DHT22;10985;54.182;7.890;2022-09-01T06:55:43;17.20;99.90
21648;DHT22;10985;54.182;7.890;2022-09-01T06:58:13;17.30;99.90
21648;DHT22;10985;54.182;7.890;2022-09-01T07:00:41;17.30;99.90
21648;DHT22;10985;54.182;7.890;2022-09-01T07:03:08;17.30;99.90
21648;DHT22;10985;54.182;7.890;2022-09-01T07:05:40;17.30;99.90
21648;DHT22;10985;54.182;7.890;2022-09-01T07:08:08;17.40;99.90
21648;DHT22;10985;54.182;7.890;2022-09-01T07:10:40;17.40;99.90
21648;DHT22;10985;54.182;7.890;2022-09-01T07:13:13;17.40;99.90
21648;DHT22;10985;54.182;7.890;2022-09-01T07:15:44;17.40;99.90
21648;DHT22;10985;54.182;7.890;2022-09-01T07:18:13;17.40;99.90
21648;DHT22;10985;54.182;7.890;2022-09-01T07:20:40;17.40;99.90
21648;DHT22;10985;54.182;7.890;2022-09-01T07:23:06;17.40;99.90
21648;DHT22;10985;54.182;7.890;2022-09-01T07:25:33;17.50;99.90
21648;DHT22;10985;54.182;7.890;2022-09-01T07:28:00;17.50;99.90
21648;DHT22;10985;54.182;7.890;2022-09-01T07:30:26;17.50;99.90
21648;DHT22;10985;54.182;7.890;2022-09-01T07:32:51;17.60;99.90
21648;DHT22;10985;54.182;7.890;2022-09-01T07:35:19;17.60;99.90
21648;DHT22;10985;54.182;7.890;2022-09-01T07:37:46;17.70;99.90
21648;DHT22;10985;54.182;7.890;2022-09-01T07:40:15;17.70;99.90
21648;DHT22;10985;54.182;7.890;2022-09-01T07:42:44;17.70;99.90
21648;DHT22;10985;54.182;7.890;2022-09-01T07:45:13;17.70;99.90
21648;DHT22;10985;54.182;7.890;2022-09-01T07:47:39;17.80;99.90
21648;DHT22;10985;54.182;7.890;2022-09-01T07:50:08;17.90;99.90
21648;DHT22;10985;54.182;7.890;2022-09-01T07:52:36;18.00;99.90
21648;DHT22;10985;54.182;7.890;2022-09-01T07:55:08;18.10;99.90
21648;DHT22;10985;54.182;7.890;2022-09-01T07:57:35;18.20;99.90
21648;DHT22;10985;54.182;7.890;2022-09-01T08:00:01;18.20;99.90
21648;DHT22;10985;54.182;7.890;2022-09-01T08:02:27;18.40;99.90
21648;DHT22;10985;54.182;7.890;2022-09-01T08:04:52;18.50;99.90
21648;DHT22;10985;54.182;7.890;2022-09-01T08:07:18;18.60;99.90
21648;DHT22;10985;54.182;7.890;2022-09-01T08:09:44;18.80;99.90
21648;DHT22;10985;54.182;7.890;2022-09-01T08:12:10;18.90;99.90
21648;DHT22;10985;54.182;7.890;2022-09-01T08:14:36;19.10;99.90
21648;DHT22;10985;54.182;7.890;2022-09-01T08:17:02;19.40;99.90
21648;DHT22;10985;54.182;7.890;2022-09-01T08:19:28;19.60;99.90
21648;DHT22;10985;54.182;7.890;2022-09-01T08:21:53;19.80;99.90
21648;DHT22;10985;54.182;7.890;2022-09-01T08:24:19;20.10;99.90
21648;DHT22;10985;54.182;7.890;2022-09-01T08:26:44;20.30;99.90
21648;DHT22;10985;54.182;7.890;2022-09-01T08:29:10;20.50;99.90
21648;DHT22;10985;54.182;7.890;2022-09-01T08:31:35;20.70;99.90
21648;DHT22;10985;54.182;7.890;2022-09-01T08:34:01;21.00;99.90
21648;DHT22;10985;54.182;7.890;2022-09-01T08:36:29;21.20;99.90
21648;DHT22;10985;54.182;7.890;2022-09-01T08:38:55;21.50;99.90
21648;DHT22;10985;54.182;7.890;2022-09-01T08:41:37;21.80;99.90
21648;DHT22;10985;54.182;7.890;2022-09-01T08:44:28;22.00;99.90
21648;DHT22;10985;54.182;7.890;2022-09-01T08:47:04;22.30;99.90
21648;DHT22;10985;54.182;7.890;2022-09-01T08:49:33;22.50;99.90
21648;DHT22;10985;54.182;7.890;2022-09-01T08:57:35;23.10;99.90
21648;DHT22;10985;54.182;7.890;2022-09-01T09:00:04;23.30;99.90
21648;DHT22;10985;54.182;7.890;2022-09-01T09:11:36;24.30;99.90
21648;DHT22;10985;54.182;7.890;2022-09-01T09:14:08;24.40;99.90
21648;DHT22;10985;54.182;7.890;2022-09-01T09:16:44;24.60;99.90
21648;DHT22;10985;54.182;7.890;2022-09-01T09:21:54;25.00;99.90
21648;DHT22;10985;54.182;7.890;2022-09-01T09:24:26;25.20;99.90
21648;DHT22;10985;54.182;7.890;2022-09-01T09:26:55;25.50;99.90
21648;DHT22;10985;54.182;7.890;2022-09-01T09:29:20;25.70;99.90
21648;DHT22;10985;54.182;7.890;2022-09-01T09:31:47;26.00;99.90
21648;DHT22;10985;54.182;7.890;2022-09-01T09:34:32;26.40;99.90
21648;DHT22;10985;54.182;7.890;2022-09-01T09:37:16;26.70;99.90
21648;DHT22;10985;54.182;7.890;2022-09-01T09:39:44;27.10;99.90
21648;DHT22;10985;54.182;7.890;2022-09-01T09:42:11;27.50;99.90
21648;DHT22;10985;54.182;7.890;2022-09-01T09:44:46;27.80;99.90
21648;DHT22;10985;54.182;7.890;2022-09-01T09:47:38;28.00;99.90
21648;DHT22;10985;54.182;7.890;2022-09-01T09:50:18;28.40;99.90
21648;DHT22;10985;54.182;7.890;2022-09-01T09:52:45;28.50;99.90
21648;DHT22;10985;54.182;7.890;2022-09-01T09:55:29;28.70;99.80
21648;DHT22;10985;54.182;7.890;2022-09-01T09:57:58;28.90;99.80
21648;DHT22;10985;54.182;7.890;2022-09-01T10:00:28;29.20;99.20
21648;DHT22;10985;54.182;7.890;2022-09-01T10:03:06;29.50;99.20
21648;DHT22;10985;54.182;7.890;2022-09-01T10:08:37;29.80;98.00
21648;DHT22;10985;54.182;7.890;2022-09-01T10:11:04;29.90;98.50
21648;DHT22;10985;54.182;7.890;2022-09-01T10:13:31;30.30;97.90
21648;DHT22;10985;54.182;7.890;2022-09-01T10:16:18;30.60;96.90
21648;DHT22;10985;54.182;7.890;2022-09-01T10:18:47;31.00;96.90
21648;DHT22;10985;54.182;7.890;2022-09-01T10:21:25;30.90;95.30
21648;DHT22;10985;54.182;7.890;2022-09-01T10:23:52;31.10;94.60
21648;DHT22;10985;54.182;7.890;2022-09-01T10:26:38;31.00;95.00
21648;DHT22;10985;54.182;7.890;2022-09-01T10:29:15;31.40;94.30
21648;DHT22;10985;54.182;7.890;2022-09-01T10:31:43;31.60;94.20
21648;DHT22;10985;54.182;7.890;2022-09-01T10:34:13;32.00;93.30
21648;DHT22;10985;54.182;7.890;2022-09-01T10:36:41;32.40;92.60
21648;DHT22;10985;54.182;7.890;2022-09-01T10:39:17;32.70;91.50
21648;DHT22;10985;54.182;7.890;2022-09-01T10:41:45;33.10;90.60
21648;DHT22;10985;54.182;7.890;2022-09-01T10:44:27;33.30;90.50
21648;DHT22;10985;54.182;7.890;2022-09-01T10:46:57;33.60;90.10
21648;DHT22;10985;54.182;7.890;2022-09-01T10:51:57;34.00;87.50
21648;DHT22;10985;54.182;7.890;2022-09-01T10:57:10;34.40;85.90
21648;DHT22;10985;54.182;7.890;2022-09-01T10:59:44;34.60;84.90
21648;DHT22;10985;54.182;7.890;2022-09-01T11:02:15;34.80;85.40
21648;DHT22;10985;54.182;7.890;2022-09-01T11:17:54;36.20;80.20
21648;DHT22;10985;54.182;7.890;2022-09-01T11:20:25;36.20;79.60
21648;DHT22;10985;54.182;7.890;2022-09-01T11:23:06;36.60;79.60
21648;DHT22;10985;54.182;7.890;2022-09-01T11:25:47;37.00;77.10
21648;DHT22;10985;54.182;7.890;2022-09-01T11:30:48;37.20;75.10
21648;DHT22;10985;54.182;7.890;2022-09-01T11:36:34;37.70;74.80
21648;DHT22;10985;54.182;7.890;2022-09-01T11:44:14;38.10;71.90
21648;DHT22;10985;54.182;7.890;2022-09-01T11:46:41;38.00;71.10
21648;DHT22;10985;54.182;7.890;2022-09-01T11:49:25;38.10;71.50
21648;DHT22;10985;54.182;7.890;2022-09-01T11:51:53;38.10;71.30
21648;DHT22;10985;54.182;7.890;2022-09-01T11:54:19;38.30;70.60
21648;DHT22;10985;54.182;7.890;2022-09-01T11:56:44;38.40;68.00
21648;DHT22;10985;54.182;7.890;2022-09-01T11:59:10;38.60;68.60
21648;DHT22;10985;54.182;7.890;2022-09-01T12:01:37;38.80;68.60
21648;DHT22;10985;54.182;7.890;2022-09-01T12:04:25;38.80;68.30
21648;DHT22;10985;54.182;7.890;2022-09-01T12:06:58;38.90;67.40
21648;DHT22;10985;54.182;7.890;2022-09-01T12:09:42;39.00;66.20
21648;DHT22;10985;54.182;7.890;2022-09-01T12:12:36;38.90;66.50
21648;DHT22;10985;54.182;7.890;2022-09-01T12:15:09;38.90;67.30
21648;DHT22;10985;54.182;7.890;2022-09-01T12:17:35;38.90;66.40
21648;DHT22;10985;54.182;7.890;2022-09-01T12:22:53;39.10;65.30
21648;DHT22;10985;54.182;7.890;2022-09-01T12:25:21;39.20;65.10
21648;DHT22;10985;54.182;7.890;2022-09-01T12:27:48;39.30;65.10
21648;DHT22;10985;54.182;7.890;2022-09-01T12:30:14;39.30;63.50
21648;DHT22;10985;54.182;7.890;2022-09-01T12:32:40;39.20;63.70
21648;DHT22;10985;54.182;7.890;2022-09-01T12:35:15;39.10;63.80
21648;DHT22;10985;54.182;7.890;2022-09-01T12:37:42;39.00;64.70
21648;DHT22;10985;54.182;7.890;2022-09-01T12:40:22;39.10;62.70
21648;DHT22;10985;54.182;7.890;2022-09-01T12:42:51;39.20;61.80
21648;DHT22;10985;54.182;7.890;2022-09-01T12:45:44;38.90;61.20
21648;DHT22;10985;54.182;7.890;2022-09-01T12:50:53;38.60;61.10
21648;DHT22;10985;54.182;7.890;2022-09-01T12:53:22;38.50;60.80
21648;DHT22;10985;54.182;7.890;2022-09-01T12:55:58;38.70;61.00
21648;DHT22;10985;54.182;7.890;2022-09-01T12:58:26;38.90;61.70
21648;DHT22;10985;54.182;7.890;2022-09-01T13:00:56;38.90;60.50
21648;DHT22;10985;54.182;7.890;2022-09-01T13:03:22;38.70;61.00
21648;DHT22;10985;54.182;7.890;2022-09-01T13:05:53;38.70;61.90
21648;DHT22;10985;54.182;7.890;2022-09-01T13:08:21;38.60;61.80
21648;DHT22;10985;54.182;7.890;2022-09-01T13:10:52;38.30;61.70
21648;DHT22;10985;54.182;7.890;2022-09-01T13:13:19;38.00;62.00
21648;DHT22;10985;54.182;7.890;2022-09-01T13:15:51;37.60;62.80
21648;DHT22;10985;54.182;7.890;2022-09-01T13:18:18;37.20;63.30
21648;DHT22;10985;54.182;7.890;2022-09-01T13:20:46;36.90;64.80
21648;DHT22;10985;54.182;7.890;2022-09-01T13:23:12;36.50;65.10
21648;DHT22;10985;54.182;7.890;2022-09-01T13:25:38;36.20;64.70
21648;DHT22;10985;54.182;7.890;2022-09-01T13:28:09;35.80;66.10
21648;DHT22;10985;54.182;7.890;2022-09-01T13:30:36;35.50;67.50
21648;DHT22;10985;54.182;7.890;2022-09-01T13:33:02;35.10;67.30
21648;DHT22;10985;54.182;7.890;2022-09-01T13:35:28;34.70;68.30
21648;DHT22;10985;54.182;7.890;2022-09-01T13:37:53;34.30;69.90
21648;DHT22;10985;54.182;7.890;2022-09-01T13:40:20;33.90;69.80
21648;DHT22;10985;54.182;7.890;2022-09-01T13:42:48;33.40;70.60
21648;DHT22;10985;54.182;7.890;2022-09-01T13:45:15;32.90;71.90
21648;DHT22;10985;54.182;7.890;2022-09-01T13:47:44;32.40;73.60
21648;DHT22;10985;54.182;7.890;2022-09-01T13:50:11;31.90;74.50
21648;DHT22;10985;54.182;7.890;2022-09-01T13:52:39;31.40;74.40
21648;DHT22;10985;54.182;7.890;2022-09-01T13:55:06;30.90;76.70
21648;DHT22;10985;54.182;7.890;2022-09-01T13:57:32;30.60;77.90
21648;DHT22;10985;54.182;7.890;2022-09-01T13:59:59;30.10;79.40
21648;DHT22;10985;54.182;7.890;2022-09-01T14:02:25;29.80;81.20
21648;DHT22;10985;54.182;7.890;2022-09-01T14:04:51;29.40;82.20
21648;DHT22;10985;54.182;7.890;2022-09-01T14:07:16;29.00;82.00
21648;DHT22;10985;54.182;7.890;2022-09-01T14:09:43;28.60;84.40
21648;DHT22;10985;54.182;7.890;2022-09-01T14:12:09;28.40;85.10
21648;DHT22;10985;54.182;7.890;2022-09-01T14:14:34;28.00;86.80
21648;DHT22;10985;54.182;7.890;2022-09-01T14:17:00;27.80;88.60
21648;DHT22;10985;54.182;7.890;2022-09-01T14:19:26;27.50;89.50
21648;DHT22;10985;54.182;7.890;2022-09-01T14:21:53;27.20;90.10
21648;DHT22;10985;54.182;7.890;2022-09-01T14:24:19;27.00;90.90
21648;DHT22;10985;54.182;7.890;2022-09-01T14:26:45;26.80;91.50
21648;DHT22;10985;54.182;7.890;2022-09-01T14:29:11;26.60;92.30
21648;DHT22;10985;54.182;7.890;2022-09-01T14:31:36;26.30;92.50
21648;DHT22;10985;54.182;7.890;2022-09-01T14:34:02;26.20;93.30
21648;DHT22;10985;54.182;7.890;2022-09-01T14:36:28;26.00;93.80
21648;DHT22;10985;54.182;7.890;2022-09-01T14:38:54;25.90;94.30
21648;DHT22;10985;54.182;7.890;2022-09-01T14:41:21;25.70;95.10
21648;DHT22;10985;54.182;7.890;2022-09-01T14:43:52;25.50;95.40
21648;DHT22;10985;54.182;7.890;2022-09-01T14:46:20;25.30;96.30
21648;DHT22;10985;54.182;7.890;2022-09-01T14:48:47;25.20;96.90
21648;DHT22;10985;54.182;7.890;2022-09-01T14:51:32;25.10;98.30
21648;DHT22;10985;54.182;7.890;2022-09-01T14:53:57;24.90;98.60
21648;DHT22;10985;54.182;7.890;2022-09-01T14:56:24;24.80;99.20
21648;DHT22;10985;54.182;7.890;2022-09-01T14:58:52;24.70;99.90
21648;DHT22;10985;54.182;7.890;2022-09-01T15:01:23;24.60;99.90
21648;DHT22;10985;54.182;7.890;2022-09-01T15:03:50;24.50;99.90
21648;DHT22;10985;54.182;7.890;2022-09-01T15:06:17;24.40;99.90
21648;DHT22;10985;54.182;7.890;2022-09-01T15:08:43;24.30;99.90
21648;DHT22;10985;54.182;7.890;2022-09-01T15:11:14;24.20;99.90
21648;DHT22;10985;54.182;7.890;2022-09-01T15:13:40;24.10;99.90
21648;DHT22;10985;54.182;7.890;2022-09-01T15:16:13;24.00;99.90
21648;DHT22;10985;54.182;7.890;2022-09-01T15:18:39;23.90;99.90
21648;DHT22;10985;54.182;7.890;2022-09-01T15:21:04;23.90;99.90
21648;DHT22;10985;54.182;7.890;2022-09-01T15:23:30;23.80;99.90
21648;DHT22;10985;54.182;7.890;2022-09-01T15:25:56;23.80;99.90
21648;DHT22;10985;54.182;7.890;2022-09-01T15:28:23;23.70;99.90
21648;DHT22;10985;54.182;7.890;2022-09-01T15:30:49;23.70;99.90
21648;DHT22;10985;54.182;7.890;2022-09-01T15:33:15;23.60;99.90
21648;DHT22;10985;54.182;7.890;2022-09-01T15:35:41;23.50;99.90
21648;DHT22;10985;54.182;7.890;2022-09-01T15:38:07;23.50;99.90
21648;DHT22;10985;54.182;7.890;2022-09-01T15:40:33;23.40;99.90
21648;DHT22;10985;54.182;7.890;2022-09-01T15:42:59;23.40;99.90
21648;DHT22;10985;54.182;7.890;2022-09-01T15:45:26;23.30;99.90
21648;DHT22;10985;54.182;7.890;2022-09-01T15:47:53;23.20;99.90
21648;DHT22;10985;54.182;7.890;2022-09-01T15:50:21;23.20;99.90
21648;DHT22;10985;54.182;7.890;2022-09-01T15:55:27;23.10;99.90
21648;DHT22;10985;54.182;7.890;2022-09-01T15:57:53;23.00;99.90
21648;DHT22;10985;54.182;7.890;2022-09-01T16:00:21;23.00;99.90
21648;DHT22;10985;54.182;7.890;2022-09-01T16:02:47;23.00;99.90
21648;DHT22;10985;54.182;7.890;2022-09-01T16:05:13;22.90;99.90
21648;DHT22;10985;54.182;7.890;2022-09-01T16:07:39;22.90;99.90
21648;DHT22;10985;54.182;7.890;2022-09-01T16:10:06;22.80;99.90
21648;DHT22;10985;54.182;7.890;2022-09-01T16:12:38;22.80;99.90
21648;DHT22;10985;54.182;7.890;2022-09-01T16:15:05;22.80;99.90
21648;DHT22;10985;54.182;7.890;2022-09-01T16:20:25;22.70;99.90
21648;DHT22;10985;54.182;7.890;2022-09-01T16:23:17;22.70;99.90
21648;DHT22;10985;54.182;7.890;2022-09-01T16:25:43;22.60;99.90
21648;DHT22;10985;54.182;7.890;2022-09-01T16:28:22;22.50;99.90
21648;DHT22;10985;54.182;7.890;2022-09-01T16:30:50;22.50;99.90
21648;DHT22;10985;54.182;7.890;2022-09-01T16:33:16;22.40;99.90
21648;DHT22;10985;54.182;7.890;2022-09-01T16:38:34;22.40;99.90
21648;DHT22;10985;54.182;7.890;2022-09-01T16:41:13;22.40;99.90
21648;DHT22;10985;54.182;7.890;2022-09-01T16:44:07;22.30;99.90
21648;DHT22;10985;54.182;7.890;2022-09-01T16:46:42;22.20;99.90
21648;DHT22;10985;54.182;7.890;2022-09-01T16:52:26;22.10;99.90